createdAt,value
2023-01-05T00:01:51.382Z,101356.38
2023-01-05T00:04:20.424Z,101350.22
2023-01-05T00:06:48.591Z,101328.53
2023-01-05T00:09:18.333Z,101337.31
2023-01-05T00:12:04.504Z,101332.19
2023-01-05T00:14:52.613Z,101320.91
2023-01-05T00:17:41.592Z,101322.59
2023-01-05T00:20:37.844Z,101313.88
2023-01-05T00:23:06.481Z,101309.66
2023-01-05T00:25:38.608Z,101306.19
2023-01-05T00:28:06.527Z,101288.81
2023-01-05T00:30:45.526Z,101299.28
2023-01-05T00:33:17.803Z,101294.88
2023-01-05T00:35:45.488Z,101287.91
2023-01-05T00:38:13.079Z,101291.38
2023-01-05T00:40:40.777Z,101294.94
2023-01-05T00:43:08.430Z,101290.44
2023-01-05T00:45:36.150Z,101284.38
2023-01-05T00:48:04.145Z,101291.38
2023-01-05T00:50:31.781Z,101290.69
2023-01-05T00:53:01.259Z,101288.84
2023-01-05T00:55:29.407Z,101275.78
2023-01-05T00:57:56.910Z,101259.25
2023-01-05T01:00:27.268Z,101251.41
2023-01-05T01:02:55.831Z,101251.44
2023-01-05T01:05:23.501Z,101253.03
2023-01-05T01:07:53.566Z,101244.38
2023-01-05T01:10:21.258Z,101251.41
2023-01-05T01:12:48.964Z,101263.59
2023-01-05T01:15:16.597Z,101255.06
2023-01-05T01:17:44.832Z,101239.44
2023-01-05T01:20:12.652Z,101235.16
2023-01-05T01:22:40.304Z,101228.13
2023-01-05T01:25:08.977Z,101225.59
2023-01-05T01:27:37.168Z,101220.34
2023-01-05T01:30:05.561Z,101224.63
2023-01-05T01:32:35.269Z,101228.13
2023-01-05T01:35:02.875Z,101216.88
2023-01-05T01:37:30.591Z,101217.75
2023-01-05T01:39:59.393Z,101209.81
2023-01-05T01:42:27.407Z,101183.75
2023-01-05T01:45:12.370Z,101179.44
2023-01-05T01:47:49.180Z,101178.78
2023-01-05T01:50:31.178Z,101177.78
2023-01-05T01:53:03.658Z,101175.31
2023-01-05T01:55:35.820Z,101172.69
2023-01-05T01:58:07.540Z,101165.00
2023-01-05T02:00:35.556Z,101159.00
2023-01-05T02:03:04.945Z,101162.44
2023-01-05T02:05:34.813Z,101170.28
2023-01-05T02:08:02.363Z,101186.78
2023-01-05T02:10:55.130Z,101178.97
2023-01-05T02:13:42.243Z,101179.75
2023-01-05T02:16:16.709Z,101170.97
2023-01-05T02:19:20.717Z,101166.63
2023-01-05T02:22:08.883Z,101159.63
2023-01-05T02:25:15.513Z,101150.22
2023-01-05T02:27:54.164Z,101153.72
2023-01-05T02:30:59.479Z,101150.28
2023-01-05T02:33:56.873Z,101148.53
2023-01-05T02:36:29.800Z,101145.16
2023-01-05T02:39:26.901Z,101141.63
2023-01-05T02:42:08.387Z,101123.38
2023-01-05T02:44:36.563Z,101111.28
2023-01-05T02:47:28.188Z,101111.38
2023-01-05T02:50:06.784Z,101106.97
2023-01-05T02:52:51.475Z,101107.91
2023-01-05T02:55:26.459Z,101114.78
2023-01-05T02:58:04.340Z,101105.19
2023-01-05T03:00:40.746Z,101098.25
2023-01-05T03:03:27.143Z,101082.59
2023-01-05T03:06:16.519Z,101072.25
2023-01-05T03:08:51.752Z,101068.88
2023-01-05T03:11:40.615Z,101065.38
2023-01-05T03:14:14.527Z,101063.72
2023-01-05T03:16:46.739Z,101062.81
2023-01-05T03:19:40.052Z,101056.78
2023-01-05T03:22:29.036Z,101065.44
2023-01-05T03:25:18.874Z,101057.56
2023-01-05T03:28:06.714Z,101051.53
2023-01-05T03:31:08.818Z,101048.94
2023-01-05T03:34:15.599Z,101049.88
2023-01-05T03:37:09.107Z,101049.81
2023-01-05T03:39:43.109Z,101040.19
2023-01-05T03:42:12.865Z,101038.22
2023-01-05T03:44:44.185Z,101033.00
2023-01-05T03:47:15.649Z,101023.47
2023-01-05T03:49:44.993Z,101030.44
2023-01-05T03:52:13.666Z,101033.00
2023-01-05T03:54:43.292Z,101021.53
2023-01-05T03:57:14.039Z,101019.97
2023-01-05T03:59:42.376Z,101006.06
2023-01-05T04:02:10.019Z,101004.44
2023-01-05T04:04:40.162Z,101008.97
2023-01-05T04:07:09.577Z,101003.72
2023-01-05T04:09:37.429Z,101000.22
2023-01-05T04:12:05.237Z,101002.88
2023-01-05T04:14:38.930Z,100991.69
2023-01-05T04:17:07.502Z,100994.28
2023-01-05T04:19:35.328Z,100988.09
2023-01-05T04:22:03.118Z,100996.78
2023-01-05T04:24:32.975Z,100991.53
2023-01-05T04:27:02.470Z,100991.53
2023-01-05T04:29:31.089Z,100990.66
2023-01-05T04:32:02.232Z,100986.16
2023-01-05T04:34:29.993Z,100971.28
2023-01-05T04:36:59.654Z,100974.91
2023-01-05T04:39:28.750Z,100968.81
2023-01-05T04:41:57.191Z,100966.19
2023-01-05T04:44:26.058Z,100960.06
2023-01-05T04:46:55.476Z,100958.38
2023-01-05T04:49:23.702Z,100955.81
2023-01-05T04:51:52.756Z,100948.75
2023-01-05T04:54:23.131Z,100946.94
2023-01-05T04:56:50.950Z,100941.69
2023-01-05T04:59:19.767Z,100926.97
2023-01-05T05:01:49.762Z,100923.44
2023-01-05T05:04:17.537Z,100920.81
2023-01-05T05:06:46.823Z,100915.59
2023-01-05T05:09:16.205Z,100903.56
2023-01-05T05:11:44.105Z,100910.53
2023-01-05T05:14:12.961Z,100889.06
2023-01-05T05:16:40.661Z,100879.41
2023-01-05T05:19:10.579Z,100865.53
2023-01-05T05:21:39.435Z,100862.91
2023-01-05T05:24:07.625Z,100864.56
2023-01-05T05:26:38.811Z,100851.47
2023-01-05T05:29:06.483Z,100839.22
2023-01-05T05:31:34.291Z,100840.94
2023-01-05T05:34:01.915Z,100839.19
2023-01-05T05:36:29.579Z,100830.44
2023-01-05T05:38:58.353Z,100820.97
2023-01-05T05:41:26.031Z,100820.88
2023-01-05T05:43:53.572Z,100818.28
2023-01-05T05:46:21.399Z,100825.13
2023-01-05T05:48:49.069Z,100806.81
2023-01-05T05:51:16.609Z,100805.91
2023-01-05T05:53:44.643Z,100796.38
2023-01-05T05:56:12.174Z,100807.75
2023-01-05T05:58:39.675Z,100805.91
2023-01-05T06:01:07.909Z,100803.34
2023-01-05T06:03:35.767Z,100795.53
2023-01-05T06:06:04.644Z,100792.09
2023-01-05T06:08:32.319Z,100782.44
2023-01-05T06:11:00.709Z,100776.38
2023-01-05T06:13:29.038Z,100778.78
2023-01-05T06:15:56.553Z,100772.63
2023-01-05T06:18:24.352Z,100770.81
2023-01-05T06:20:56.291Z,100766.28
2023-01-05T06:23:27.166Z,100749.25
2023-01-05T06:25:54.773Z,100764.75
2023-01-05T06:28:22.298Z,100749.09
2023-01-05T06:30:49.900Z,100742.13
2023-01-05T06:33:17.452Z,100743.75
2023-01-05T06:35:46.435Z,100741.16
2023-01-05T06:38:16.135Z,100733.06
2023-01-05T06:40:44.799Z,100721.91
2023-01-05T06:43:12.699Z,100730.53
2023-01-05T06:45:40.363Z,100719.47
2023-01-05T06:48:07.922Z,100708.03
2023-01-05T06:50:36.120Z,100704.53
2023-01-05T06:53:03.994Z,100699.28
2023-01-05T06:55:31.710Z,100711.28
2023-01-05T06:58:01.311Z,100695.41
2023-01-05T07:00:29.703Z,100684.88
2023-01-05T07:02:57.282Z,100672.91
2023-01-05T07:05:26.524Z,100680.78
2023-01-05T07:07:54.324Z,100672.88
2023-01-05T07:10:21.931Z,100662.41
2023-01-05T07:12:50.313Z,100660.34
2023-01-05T07:15:18.025Z,100665.28
2023-01-05T07:17:46.083Z,100652.91
2023-01-05T07:20:13.993Z,100633.34
2023-01-05T07:22:41.691Z,100634.25
2023-01-05T07:25:10.228Z,100638.59
2023-01-05T07:27:37.906Z,100641.13
2023-01-05T07:30:06.264Z,100625.38
2023-01-05T07:32:35.005Z,100626.06
2023-01-05T07:35:02.662Z,100606.22
2023-01-05T07:37:30.408Z,100601.84
2023-01-05T07:39:57.992Z,100611.44
2023-01-05T07:42:26.226Z,100602.00
2023-01-05T07:44:53.874Z,100578.44
2023-01-05T07:47:22.691Z,100593.91
2023-01-05T07:49:50.362Z,100587.84
2023-01-05T07:52:17.956Z,100580.00
2023-01-05T07:54:46.369Z,100578.84
2023-01-05T07:57:14.390Z,100577.75
2023-01-05T08:10:49.126Z,100573.66
2023-01-05T08:13:36.383Z,100541.34
2023-01-05T08:16:04.521Z,100534.19
2023-01-05T08:18:33.618Z,100526.38
2023-01-05T08:26:42.124Z,100466.78
2023-01-05T08:29:10.030Z,100445.88
2023-01-05T08:31:39.547Z,100461.84
2023-01-05T08:34:07.797Z,100470.59
2023-01-05T08:36:36.503Z,100454.69
2023-01-05T08:39:08.383Z,100450.22
2023-01-05T08:41:38.465Z,100441.38
2023-01-05T08:44:16.632Z,100436.94
2023-01-05T08:46:44.298Z,100440.66
2023-01-05T08:50:08.020Z,100429.16
2023-01-05T08:53:05.549Z,100425.94
2023-01-05T08:55:35.092Z,100436.56
2023-01-05T08:58:03.412Z,100428.50
2023-01-05T09:00:30.998Z,100416.22
2023-01-05T09:02:58.619Z,100412.75
2023-01-05T09:05:30.220Z,100415.06
2023-01-05T09:07:57.890Z,100414.16
2023-01-05T09:10:25.539Z,100394.13
2023-01-05T09:12:53.226Z,100390.84
2023-01-05T09:15:21.135Z,100375.72
2023-01-05T09:17:49.142Z,100380.69
2023-01-05T09:20:16.790Z,100382.22
2023-01-05T09:22:45.151Z,100370.66
2023-01-05T09:25:12.853Z,100362.88
2023-01-05T09:27:41.497Z,100355.84
2023-01-05T09:30:09.747Z,100347.19
2023-01-05T09:32:37.846Z,100336.63
2023-01-05T09:35:05.714Z,100351.34
2023-01-05T09:37:33.389Z,100342.50
2023-01-05T09:40:01.015Z,100334.34
2023-01-05T09:42:32.415Z,100333.63
2023-01-05T09:45:05.156Z,100323.44
2023-01-05T09:47:37.975Z,100321.06
2023-01-05T09:50:16.999Z,100322.03
2023-01-05T09:52:44.676Z,100305.94
2023-01-05T09:55:17.506Z,100310.25
2023-01-05T09:57:54.750Z,100304.00
2023-01-05T10:00:24.299Z,100311.84
2023-01-05T10:03:29.231Z,100285.94
2023-01-05T10:06:01.212Z,100276.16
2023-01-05T10:08:38.165Z,100274.38
2023-01-05T10:11:30.723Z,100276.97
2023-01-05T10:14:05.367Z,100262.09
2023-01-05T10:16:33.631Z,100248.84
2023-01-05T10:19:02.425Z,100243.69
2023-01-05T10:22:02.647Z,100234.84
2023-01-05T10:25:08.151Z,100233.34
2023-01-05T10:27:57.963Z,100237.53
2023-01-05T10:30:35.113Z,100217.66
2023-01-05T10:33:32.007Z,100225.44
2023-01-05T10:37:06.535Z,100218.31
2023-01-05T10:39:38.632Z,100229.50
2023-01-05T10:42:16.342Z,100224.28
2023-01-05T10:44:59.765Z,100212.22
2023-01-05T10:47:30.594Z,100196.34
2023-01-05T10:50:01.310Z,100187.38
2023-01-05T10:52:29.803Z,100175.31
2023-01-05T10:55:01.924Z,100180.38
2023-01-05T10:57:35.922Z,100170.00
2023-01-05T11:00:10.032Z,100173.41
2023-01-05T11:02:47.996Z,100162.09
2023-01-05T11:05:42.866Z,100155.03
2023-01-05T11:08:19.741Z,100169.66
2023-01-05T11:10:55.823Z,100175.59
2023-01-05T11:13:31.279Z,100178.94
2023-01-05T11:16:12.656Z,100175.38
2023-01-05T11:19:03.662Z,100176.03
2023-01-05T11:21:39.466Z,100170.59
2023-01-05T11:24:31.803Z,100152.22
2023-01-05T11:27:03.251Z,100145.06
2023-01-05T11:29:31.186Z,100120.72
2023-01-05T11:32:10.929Z,100119.66
2023-01-05T11:34:46.145Z,100122.94
2023-01-05T11:37:26.509Z,100110.53
2023-01-05T11:39:59.739Z,100106.91
2023-01-05T11:42:27.513Z,100105.84
2023-01-05T11:45:16.811Z,100104.94
2023-01-05T11:47:47.866Z,100084.13
2023-01-05T11:50:21.783Z,100090.75
2023-01-05T11:52:51.734Z,100102.09
2023-01-05T11:55:30.606Z,100077.44
2023-01-05T11:58:17.859Z,100074.91
2023-01-05T12:00:53.273Z,100067.66
2023-01-05T12:03:35.661Z,100049.19
2023-01-05T12:06:26.220Z,100049.94
2023-01-05T12:08:57.006Z,100040.13
2023-01-05T12:11:32.077Z,100035.53
2023-01-05T12:14:36.818Z,100023.38
2023-01-05T12:17:14.677Z,100019.22
2023-01-05T12:20:21.065Z,100013.63
2023-01-05T12:23:30.411Z,100004.13
2023-01-05T12:26:16.778Z,100000.47
2023-01-05T12:30:24.656Z,99990.84
2023-01-05T12:35:17.094Z,99963.81
2023-01-05T12:37:47.280Z,99971.25
2023-01-05T12:40:45.351Z,99972.94
2023-01-05T12:43:28.224Z,99965.78
2023-01-05T12:46:00.915Z,99968.66
2023-01-05T12:48:31.459Z,99975.47
2023-01-05T12:51:20.732Z,99974.63
2023-01-05T12:53:51.002Z,99965.97
2023-01-05T12:56:30.203Z,99964.25
2023-01-05T13:02:42.775Z,99956.06
2023-01-05T13:05:25.742Z,99955.22
2023-01-05T13:08:16.089Z,99955.44
2023-01-05T13:10:50.313Z,99954.34
2023-01-05T13:13:23.477Z,99935.91
2023-01-05T13:16:05.809Z,99936.03
2023-01-05T13:18:38.107Z,99962.75
2023-01-05T13:21:12.699Z,99935.59
2023-01-05T13:24:09.835Z,99930.34
2023-01-05T13:26:38.499Z,99925.09
2023-01-05T13:29:06.425Z,99910.44
2023-01-05T13:32:08.313Z,99923.06
2023-01-05T13:34:35.831Z,99909.19
2023-01-05T13:37:34.273Z,99912.09
2023-01-05T13:40:17.261Z,99894.38
2023-01-05T13:43:22.536Z,99901.25
2023-01-05T13:46:22.823Z,99910.88
2023-01-05T13:49:11.390Z,99894.38
2023-01-05T13:51:54.619Z,99893.47
2023-01-05T13:55:02.003Z,99888.34
2023-01-05T13:57:38.270Z,99872.63
2023-01-05T14:00:40.016Z,99885.03
2023-01-05T14:03:21.900Z,99872.22
2023-01-05T14:05:59.240Z,99846.97
2023-01-05T14:08:39.755Z,99845.34
2023-01-05T14:11:19.650Z,99853.56
2023-01-05T14:14:05.009Z,99831.84
2023-01-05T14:16:35.930Z,99839.09
2023-01-05T14:19:22.610Z,99831.28
2023-01-05T14:21:54.109Z,99819.97
2023-01-05T14:24:32.149Z,99828.06
2023-01-05T14:27:11.655Z,99820.97
2023-01-05T14:29:48.195Z,99808.00
2023-01-05T14:32:38.937Z,99794.78
2023-01-05T14:35:29.377Z,99780.94
2023-01-05T14:37:57.050Z,99791.25
2023-01-05T14:40:43.904Z,99769.44
2023-01-05T14:43:36.674Z,99770.31
2023-01-05T14:46:15.411Z,99773.00
2023-01-05T14:48:59.560Z,99768.41
2023-01-05T14:51:30.033Z,99749.16
2023-01-05T14:54:03.185Z,99760.59
2023-01-05T14:56:35.244Z,99765.78
2023-01-05T14:59:20.317Z,99749.34
2023-01-05T15:02:01.096Z,99736.25
2023-01-05T15:04:33.618Z,99741.66
2023-01-05T15:07:20.036Z,99746.81
2023-01-05T15:10:08.299Z,99720.63
2023-01-05T15:13:12.399Z,99736.34
2023-01-05T15:15:58.112Z,99735.34
2023-01-05T15:18:25.735Z,99724.16
2023-01-05T15:21:11.977Z,99731.94
2023-01-05T15:24:16.167Z,99721.47
2023-01-05T15:27:23.814Z,99733.66
2023-01-05T15:29:58.800Z,99732.88
2023-01-05T15:32:35.628Z,99718.78
2023-01-05T17:14:31.521Z,99680.56
2023-01-05T17:17:02.156Z,99682.25
2023-01-05T17:19:29.904Z,99677.19
2023-01-05T17:22:00.960Z,99673.63
2023-01-05T17:24:31.943Z,99683.09
2023-01-05T17:27:00.239Z,99685.44
2023-01-05T17:29:32.527Z,99685.38
2023-01-05T17:32:00.219Z,99678.38
2023-01-05T17:34:27.887Z,99671.34
2023-01-05T17:36:58.482Z,99667.66
2023-01-05T17:39:26.187Z,99661.66
2023-01-05T17:42:14.014Z,99666.59
2023-01-05T17:44:42.613Z,99664.91
2023-01-05T17:47:10.248Z,99664.75
2023-01-05T17:49:38.271Z,99666.53
2023-01-05T17:52:05.967Z,99654.34
2023-01-05T17:54:33.917Z,99648.91
2023-01-05T17:57:01.657Z,99662.00
2023-01-05T17:59:29.396Z,99647.97
2023-01-05T18:01:58.272Z,99650.50
2023-01-05T18:04:27.227Z,99647.81
2023-01-05T18:06:56.374Z,99632.09
2023-01-05T18:11:56.665Z,99641.63
2023-01-05T18:14:24.627Z,99645.47
2023-01-05T18:16:52.251Z,99640.13
2023-01-05T18:19:20.293Z,99623.78
2023-01-05T18:21:47.891Z,99632.28
2023-01-05T18:24:16.573Z,99630.72
2023-01-05T18:26:44.227Z,99633.97
2023-01-05T18:29:11.798Z,99626.03
2023-01-05T18:31:43.468Z,99618.97
2023-01-05T18:34:11.289Z,99621.50
2023-01-05T18:36:39.338Z,99618.06
2023-01-05T18:39:07.169Z,99623.97
2023-01-05T18:41:35.879Z,99629.94
2023-01-05T18:44:05.368Z,99633.22
2023-01-05T18:46:33.206Z,99629.94
2023-01-05T18:49:00.881Z,99614.34
2023-01-05T18:51:28.448Z,99611.59
2023-01-05T18:53:56.042Z,99611.66
2023-01-05T18:56:24.814Z,99606.44
2023-01-05T18:58:54.086Z,99615.13
2023-01-05T19:01:23.684Z,99621.78
2023-01-05T19:03:53.220Z,99614.13
2023-01-05T19:06:23.871Z,99605.22
2023-01-05T19:08:52.042Z,99607.75
2023-01-05T19:11:22.151Z,99602.66
2023-01-05T19:13:50.318Z,99598.41
2023-01-05T19:16:21.190Z,99614.03
2023-01-05T19:18:52.459Z,99607.19
2023-01-05T19:21:23.764Z,99599.56
2023-01-05T19:23:56.675Z,99596.56
2023-01-05T19:26:25.261Z,99599.16
2023-01-05T19:28:52.942Z,99604.38
2023-01-05T19:31:23.368Z,99598.31
2023-01-05T19:33:53.179Z,99595.72
2023-01-05T19:36:22.790Z,99594.81
2023-01-05T19:38:50.348Z,99585.94
2023-01-05T19:41:20.731Z,99580.78
2023-01-05T19:43:50.100Z,99585.84
2023-01-05T19:46:20.328Z,99588.34
2023-01-05T19:48:48.532Z,99571.69
2023-01-05T19:51:20.621Z,99577.69
2023-01-05T19:53:56.670Z,99576.84
2023-01-05T19:56:27.208Z,99579.56
2023-01-05T19:58:57.620Z,99567.22
2023-01-05T20:01:27.464Z,99576.00
2023-01-05T20:03:55.793Z,99581.06
2023-01-05T20:06:28.935Z,99583.09
2023-01-05T20:09:13.118Z,99583.94
2023-01-05T20:11:44.565Z,99572.75
2023-01-05T20:14:31.895Z,99575.91
2023-01-05T20:17:03.730Z,99575.91
2023-01-05T20:19:33.373Z,99569.06
2023-01-05T20:22:02.803Z,99568.81
2023-01-05T20:24:33.627Z,99568.59
2023-01-05T20:27:08.474Z,99563.22
2023-01-05T20:29:36.790Z,99582.31
2023-01-05T20:32:09.298Z,99570.91
2023-01-05T20:34:38.935Z,99567.53
2023-01-05T20:37:09.324Z,99578.06
2023-01-05T20:39:39.926Z,99581.31
2023-01-05T20:42:10.641Z,99564.19
2023-01-05T20:44:41.884Z,99574.59
2023-01-05T20:47:11.666Z,99573.84
2023-01-05T20:49:40.291Z,99575.53
2023-01-05T20:52:09.964Z,99574.38
2023-01-05T20:54:39.253Z,99573.44
2023-01-05T20:57:08.021Z,99581.09
2023-01-05T20:59:38.829Z,99575.97
2023-01-05T21:02:18.385Z,99574.16
2023-01-05T21:04:50.904Z,99575.75
2023-01-05T21:10:43.634Z,99559.63
2023-01-05T21:13:30.577Z,99571.91
2023-01-05T21:16:03.949Z,99568.59
2023-01-05T21:18:33.525Z,99568.53
2023-01-05T21:21:04.296Z,99578.06
2023-01-05T21:23:31.902Z,99573.84
2023-01-05T21:26:07.054Z,99559.91
2023-01-05T21:28:38.547Z,99567.50
2023-01-05T21:31:17.106Z,99561.19
2023-01-05T21:33:50.253Z,99562.13
2023-01-05T21:36:23.510Z,99562.78
2023-01-05T21:39:01.125Z,99563.72
2023-01-05T21:41:52.540Z,99547.91
2023-01-05T21:44:30.769Z,99551.16
2023-01-05T21:47:02.584Z,99551.06
2023-01-05T21:49:38.173Z,99533.03
2023-01-05T21:52:30.666Z,99556.22
2023-01-05T21:55:21.244Z,99563.31
2023-01-05T21:57:48.842Z,99557.16
2023-01-05T22:00:19.042Z,99565.03
2023-01-05T22:02:49.258Z,99559.63
2023-01-05T22:05:17.073Z,99560.47
2023-01-05T22:07:46.512Z,99568.25
2023-01-05T22:10:14.283Z,99548.97
2023-01-05T22:18:00.576Z,99557.38
2023-01-05T22:20:28.375Z,99560.69
2023-01-05T22:22:55.928Z,99557.13
2023-01-05T22:25:24.113Z,99563.22
2023-01-05T22:27:51.718Z,99557.81
2023-01-05T22:30:19.378Z,99564.75
2023-01-05T22:32:49.042Z,99562.13
2023-01-05T22:35:17.171Z,99555.13
2023-01-05T22:37:47.243Z,99565.28
2023-01-05T22:40:15.172Z,99555.81
2023-01-05T22:42:42.832Z,99564.44
2023-01-05T22:45:10.796Z,99568.75
2023-01-05T22:47:38.493Z,99576.63
2023-01-05T22:50:07.493Z,99572.25
2023-01-05T22:52:35.333Z,99571.47
2023-01-05T22:55:03.122Z,99564.53
2023-01-05T22:57:31.040Z,99565.28
2023-01-05T22:59:58.918Z,99557.59
2023-01-05T23:02:26.550Z,99574.00
2023-01-05T23:04:54.287Z,99570.72
2023-01-05T23:07:24.103Z,99581.22
2023-01-05T23:09:51.719Z,99575.03
2023-01-05T23:12:19.313Z,99574.88
2023-01-05T23:14:48.893Z,99580.78
2023-01-05T23:17:16.537Z,99577.34
2023-01-05T23:19:44.105Z,99577.34
2023-01-05T23:22:11.756Z,99584.34
2023-01-05T23:24:39.389Z,99578.19
2023-01-05T23:27:07.078Z,99579.78
2023-01-05T23:29:36.174Z,99574.72
2023-01-05T23:32:04.866Z,99581.50
2023-01-05T23:34:33.039Z,99578.34
2023-01-05T23:37:00.729Z,99585.44
2023-01-05T23:39:28.183Z,99577.81
2023-01-05T23:41:55.777Z,99589.16
2023-01-05T23:44:23.371Z,99592.38
2023-01-05T23:46:51.068Z,99582.91
2023-01-05T23:49:18.579Z,99589.84
2023-01-05T23:51:46.139Z,99589.16
2023-01-05T23:54:13.720Z,99597.56
2023-01-05T23:56:41.780Z,99598.13
2023-01-05T23:59:09.656Z,99600.63
